»·PEaware :: N505Z KBFL-KMHV

N505Z :: KBFL-KMHV

FLIGHT INFORMATION

Flight Status: Arrived
Operator: Privately registered:
United States
More flights under this callsign
Pilot: Glen R. (20150)
Aircraft: Unknown
(M20K)
More flights by this aircraft type
Origin: KBFL Meadows
United States
Destination: KMHV Mojave
United States
More flights between these airports :: More routes between these airports
Route: +
File this flight plan on PilotEdge
Remarks: cat6
Altitude:
(Current/Filed)
0ft
Speed:
(Current/Filed)
0kts
Departed: 21-Sep-18 01:49 PM
Arrived: 21-Sep-18 02:30 PM
Distance/Time
Traveled:
50nm/0:41
Distance/Time
To Go:
Arrived

Flight Plot

Page will automatically refresh every two minutes.


Map Options




Map Legend


Flown Route
Filed Route
Departure Airport
Arrival Airport
Navaid (VOR, NDB)
Fix

Horizontal Profiles

Position Reports

Time Latitude Longitude Heading Altitude Ground
Speed
21-Sep-18 13:44 35.429363 -119.046113 213 508ft 0kts
21-Sep-18 13:45 35.429363 -119.046113 213 508ft 0kts
21-Sep-18 13:46 35.429363 -119.046113 213 508ft 0kts
21-Sep-18 13:47 35.428698 -119.046029 163 508ft 16kts
21-Sep-18 13:48 35.427396 -119.044873 140 508ft 10kts
21-Sep-18 13:49 35.425999 -119.044531 188 508ft 11kts
21-Sep-18 13:50 35.425778 -119.044657 214 508ft 0kts
21-Sep-18 13:51 35.427565 -119.048588 316 508ft 72kts
21-Sep-18 13:52 35.436573 -119.059959 314 976ft 89kts
21-Sep-18 13:53 35.446667 -119.068441 12 1570ft 93kts
21-Sep-18 13:54 35.451181 -119.055144 117 2118ft 101kts
21-Sep-18 13:55 35.444168 -119.040212 117 2794ft 98kts
21-Sep-18 13:56 35.437742 -119.021885 114 3484ft 106kts
21-Sep-18 13:57 35.429928 -119.000895 112 4230ft 115kts
21-Sep-18 13:58 35.422711 -118.977878 117 5044ft 118kts
21-Sep-18 13:59 35.413028 -118.954937 116 5873ft 123kts
21-Sep-18 14:00 35.401676 -118.931097 126 6701ft 125kts
21-Sep-18 14:01 35.388857 -118.910850 122 7465ft 130kts
21-Sep-18 14:02 35.379460 -118.885142 114 7429ft 175kts
21-Sep-18 14:03 35.363986 -118.848705 119 7496ft 192kts
21-Sep-18 14:04 35.347805 -118.812413 117 7710ft 194kts
21-Sep-18 14:05 35.332931 -118.781874 124 7831ft 194kts
21-Sep-18 14:06 35.317655 -118.751334 117 7715ft 204kts
21-Sep-18 14:07 35.302771 -118.713404 112 7738ft 203kts
21-Sep-18 14:08 35.289809 -118.678348 115 7620ft 206kts
21-Sep-18 14:09 35.277749 -118.645471 115 7489ft 207kts
21-Sep-18 14:10 35.263299 -118.615393 122 7432ft 207kts
21-Sep-18 14:11 35.245829 -118.580125 119 7437ft 202kts
21-Sep-18 14:12 35.230168 -118.544821 118 7400ft 204kts
21-Sep-18 14:13 35.215789 -118.513217 118 7462ft 201kts
21-Sep-18 14:14 35.206745 -118.491468 115 7433ft 203kts
21-Sep-18 14:15 35.190842 -118.454433 118 7400ft 204kts
21-Sep-18 14:16 35.176268 -118.420247 116 7394ft 203kts
21-Sep-18 14:17 35.164340 -118.391535 115 7416ft 199kts
21-Sep-18 14:18 35.155080 -118.368153 115 7285ft 198kts
21-Sep-18 14:19 35.141391 -118.333206 113 6623ft 200kts
21-Sep-18 14:20 35.129792 -118.302539 114 6093ft 188kts
21-Sep-18 14:21 35.115347 -118.264131 121 5535ft 171kts
21-Sep-18 14:22 35.097646 -118.236503 132 5178ft 139kts
21-Sep-18 14:23 35.083412 -118.218344 140 4746ft 125kts
21-Sep-18 14:24 35.063570 -118.201208 156 4623ft 123kts
21-Sep-18 14:25 35.043205 -118.193230 144 4284ft 128kts
21-Sep-18 14:26 35.038601 -118.172601 89 4000ft 111kts
21-Sep-18 14:27 35.038652 -118.149486 86 3813ft 115kts
21-Sep-18 14:28 35.040342 -118.127501 71 3630ft 108kts
21-Sep-18 14:29 35.053279 -118.118460 8 3323ft 100kts
21-Sep-18 14:30 35.059143 -118.130050 263 3100ft 83kts
21-Sep-18 14:31 35.059114 -118.143124 270 2801ft 66kts
21-Sep-18 14:32 35.059121 -118.150232 255 2793ft 10kts
21-Sep-18 14:33 35.058586 -118.150015 133 2793ft 0kts
21-Sep-18 14:34 35.058441 -118.149836 135 2793ft 5kts
21-Sep-18 14:35 35.057579 -118.150647 269 2793ft 13kts
21-Sep-18 14:36 35.057530 -118.153612 235 2793ft 14kts
21-Sep-18 14:37 35.057105 -118.153747 164 2793ft 0kts

Navigation Log

Ident Type
Flight plan parsing failed, navigation log unavailable